sensor_id;sensor_type;location;lat;lon;timestamp;P1;durP1;ratioP1;P2;durP2;ratioP2
84766;SDS011;74995;49.824;10.994;2024-03-06T00:02:00;10.90;;;6.70;;
84766;SDS011;74995;49.824;10.994;2024-03-06T00:04:26;10.35;;;6.60;;
84766;SDS011;74995;49.824;10.994;2024-03-06T00:06:51;12.73;;;6.97;;
84766;SDS011;74995;49.824;10.994;2024-03-06T00:09:17;14.63;;;7.55;;
84766;SDS011;74995;49.824;10.994;2024-03-06T00:11:43;10.63;;;7.30;;
84766;SDS011;74995;49.824;10.994;2024-03-06T00:14:09;10.35;;;7.10;;
84766;SDS011;74995;49.824;10.994;2024-03-06T00:16:37;7.75;;;4.50;;
84766;SDS011;74995;49.824;10.994;2024-03-06T00:19:03;12.63;;;6.97;;
84766;SDS011;74995;49.824;10.994;2024-03-06T00:21:28;15.85;;;7.20;;
84766;SDS011;74995;49.824;10.994;2024-03-06T00:23:54;16.15;;;8.25;;
84766;SDS011;74995;49.824;10.994;2024-03-06T00:26:20;11.25;;;7.18;;
84766;SDS011;74995;49.824;10.994;2024-03-06T00:28:46;11.45;;;7.07;;
84766;SDS011;74995;49.824;10.994;2024-03-06T00:31:12;13.02;;;7.25;;
84766;SDS011;74995;49.824;10.994;2024-03-06T00:33:37;12.30;;;8.13;;
84766;SDS011;74995;49.824;10.994;2024-03-06T00:36:03;13.95;;;7.05;;
84766;SDS011;74995;49.824;10.994;2024-03-06T00:38:28;12.23;;;7.25;;
84766;SDS011;74995;49.824;10.994;2024-03-06T00:43:19;15.63;;;7.07;;
84766;SDS011;74995;49.824;10.994;2024-03-06T00:45:45;11.50;;;7.10;;
84766;SDS011;74995;49.824;10.994;2024-03-06T00:50:35;11.57;;;7.50;;
84766;SDS011;74995;49.824;10.994;2024-03-06T00:53:01;10.77;;;6.55;;
84766;SDS011;74995;49.824;10.994;2024-03-06T00:55:26;11.88;;;7.55;;
84766;SDS011;74995;49.824;10.994;2024-03-06T00:57:51;11.82;;;7.55;;
84766;SDS011;74995;49.824;10.994;2024-03-06T01:00:17;13.95;;;7.95;;
84766;SDS011;74995;49.824;10.994;2024-03-06T01:02:43;12.07;;;8.18;;
84766;SDS011;74995;49.824;10.994;2024-03-06T01:05:08;12.88;;;7.50;;
84766;SDS011;74995;49.824;10.994;2024-03-06T01:07:34;13.50;;;7.97;;
84766;SDS011;74995;49.824;10.994;2024-03-06T01:12:26;12.10;;;6.90;;
84766;SDS011;74995;49.824;10.994;2024-03-06T01:14:51;13.02;;;7.18;;
84766;SDS011;74995;49.824;10.994;2024-03-06T01:17:17;9.70;;;5.68;;
84766;SDS011;74995;49.824;10.994;2024-03-06T01:19:42;12.02;;;7.65;;
84766;SDS011;74995;49.824;10.994;2024-03-06T01:22:11;12.15;;;7.25;;
84766;SDS011;74995;49.824;10.994;2024-03-06T01:24:38;11.18;;;6.93;;
84766;SDS011;74995;49.824;10.994;2024-03-06T01:27:03;12.32;;;6.72;;
84766;SDS011;74995;49.824;10.994;2024-03-06T01:29:29;12.32;;;6.78;;
84766;SDS011;74995;49.824;10.994;2024-03-06T01:31:54;10.57;;;6.03;;
84766;SDS011;74995;49.824;10.994;2024-03-06T01:34:19;11.10;;;6.75;;
84766;SDS011;74995;49.824;10.994;2024-03-06T01:36:45;12.40;;;7.75;;
84766;SDS011;74995;49.824;10.994;2024-03-06T01:39:10;14.07;;;7.40;;
84766;SDS011;74995;49.824;10.994;2024-03-06T01:41:36;10.73;;;7.05;;
84766;SDS011;74995;49.824;10.994;2024-03-06T01:44:01;13.77;;;7.60;;
84766;SDS011;74995;49.824;10.994;2024-03-06T01:46:27;12.13;;;7.30;;
84766;SDS011;74995;49.824;10.994;2024-03-06T01:48:52;14.45;;;7.50;;
84766;SDS011;74995;49.824;10.994;2024-03-06T01:51:18;11.48;;;7.30;;
84766;SDS011;74995;49.824;10.994;2024-03-06T01:56:09;12.13;;;7.63;;
84766;SDS011;74995;49.824;10.994;2024-03-06T01:58:37;12.48;;;7.32;;
84766;SDS011;74995;49.824;10.994;2024-03-06T02:01:04;11.82;;;7.30;;
84766;SDS011;74995;49.824;10.994;2024-03-06T02:03:31;14.10;;;8.63;;
84766;SDS011;74995;49.824;10.994;2024-03-06T02:05:57;15.85;;;7.80;;
84766;SDS011;74995;49.824;10.994;2024-03-06T02:08:23;15.23;;;8.50;;
84766;SDS011;74995;49.824;10.994;2024-03-06T02:10:49;9.15;;;5.75;;
84766;SDS011;74995;49.824;10.994;2024-03-06T02:13:15;6.57;;;3.92;;
84766;SDS011;74995;49.824;10.994;2024-03-06T02:15:40;6.35;;;3.97;;
84766;SDS011;74995;49.824;10.994;2024-03-06T02:20:31;6.32;;;3.45;;
84766;SDS011;74995;49.824;10.994;2024-03-06T02:22:56;10.15;;;6.10;;
84766;SDS011;74995;49.824;10.994;2024-03-06T02:25:22;5.57;;;3.83;;
84766;SDS011;74995;49.824;10.994;2024-03-06T02:27:47;6.13;;;3.92;;
84766;SDS011;74995;49.824;10.994;2024-03-06T02:30:13;12.70;;;7.82;;
84766;SDS011;74995;49.824;10.994;2024-03-06T02:32:38;14.30;;;8.23;;
84766;SDS011;74995;49.824;10.994;2024-03-06T02:35:04;11.40;;;7.28;;
84766;SDS011;74995;49.824;10.994;2024-03-06T02:37:33;12.88;;;7.50;;
84766;SDS011;74995;49.824;10.994;2024-03-06T02:39:59;13.65;;;7.65;;
84766;SDS011;74995;49.824;10.994;2024-03-06T02:42:24;13.13;;;7.75;;
84766;SDS011;74995;49.824;10.994;2024-03-06T02:44:49;12.90;;;7.60;;
84766;SDS011;74995;49.824;10.994;2024-03-06T02:49:40;11.63;;;6.97;;
84766;SDS011;74995;49.824;10.994;2024-03-06T02:52:05;13.75;;;8.00;;
84766;SDS011;74995;49.824;10.994;2024-03-06T02:56:56;14.60;;;8.73;;
84766;SDS011;74995;49.824;10.994;2024-03-06T03:01:47;11.80;;;7.00;;
84766;SDS011;74995;49.824;10.994;2024-03-06T03:04:13;14.85;;;7.60;;
84766;SDS011;74995;49.824;10.994;2024-03-06T03:09:03;12.43;;;6.87;;
84766;SDS011;74995;49.824;10.994;2024-03-06T03:11:29;11.43;;;6.53;;
84766;SDS011;74995;49.824;10.994;2024-03-06T03:13:55;13.52;;;7.20;;
84766;SDS011;74995;49.824;10.994;2024-03-06T03:16:20;11.73;;;7.20;;
84766;SDS011;74995;49.824;10.994;2024-03-06T03:18:46;14.27;;;8.43;;
84766;SDS011;74995;49.824;10.994;2024-03-06T03:21:12;13.25;;;6.82;;
84766;SDS011;74995;49.824;10.994;2024-03-06T03:23:38;12.55;;;7.63;;
84766;SDS011;74995;49.824;10.994;2024-03-06T03:26:04;11.27;;;8.27;;
84766;SDS011;74995;49.824;10.994;2024-03-06T03:28:30;13.88;;;7.80;;
84766;SDS011;74995;49.824;10.994;2024-03-06T03:30:55;12.70;;;7.25;;
84766;SDS011;74995;49.824;10.994;2024-03-06T03:35:46;12.68;;;7.47;;
84766;SDS011;74995;49.824;10.994;2024-03-06T03:38:12;12.20;;;6.85;;
84766;SDS011;74995;49.824;10.994;2024-03-06T03:40:37;14.80;;;7.95;;
84766;SDS011;74995;49.824;10.994;2024-03-06T03:43:02;13.23;;;7.72;;
84766;SDS011;74995;49.824;10.994;2024-03-06T03:45:31;14.15;;;7.85;;
84766;SDS011;74995;49.824;10.994;2024-03-06T03:48:03;11.65;;;6.68;;
84766;SDS011;74995;49.824;10.994;2024-03-06T03:50:29;14.15;;;8.43;;
84766;SDS011;74995;49.824;10.994;2024-03-06T03:55:22;11.65;;;6.82;;
84766;SDS011;74995;49.824;10.994;2024-03-06T03:57:48;13.20;;;7.65;;
84766;SDS011;74995;49.824;10.994;2024-03-06T04:00:14;9.38;;;5.90;;
84766;SDS011;74995;49.824;10.994;2024-03-06T04:02:39;12.32;;;7.43;;
84766;SDS011;74995;49.824;10.994;2024-03-06T04:07:30;11.65;;;7.07;;
84766;SDS011;74995;49.824;10.994;2024-03-06T04:09:55;14.07;;;7.85;;
84766;SDS011;74995;49.824;10.994;2024-03-06T04:14:46;12.37;;;7.23;;
84766;SDS011;74995;49.824;10.994;2024-03-06T04:17:11;14.48;;;7.38;;
84766;SDS011;74995;49.824;10.994;2024-03-06T04:19:36;13.05;;;7.72;;
84766;SDS011;74995;49.824;10.994;2024-03-06T04:24:27;12.68;;;7.25;;
84766;SDS011;74995;49.824;10.994;2024-03-06T04:29:18;13.67;;;7.67;;
84766;SDS011;74995;49.824;10.994;2024-03-06T04:31:43;15.48;;;7.88;;
84766;SDS011;74995;49.824;10.994;2024-03-06T04:34:08;13.45;;;7.78;;
84766;SDS011;74995;49.824;10.994;2024-03-06T04:36:34;13.07;;;7.68;;
84766;SDS011;74995;49.824;10.994;2024-03-06T04:41:24;13.77;;;8.00;;
84766;SDS011;74995;49.824;10.994;2024-03-06T04:43:50;14.32;;;7.88;;
84766;SDS011;74995;49.824;10.994;2024-03-06T04:46:17;12.18;;;7.55;;
84766;SDS011;74995;49.824;10.994;2024-03-06T04:51:07;11.47;;;6.80;;
84766;SDS011;74995;49.824;10.994;2024-03-06T04:53:34;15.38;;;8.55;;
84766;SDS011;74995;49.824;10.994;2024-03-06T04:56:00;12.98;;;7.53;;
84766;SDS011;74995;49.824;10.994;2024-03-06T05:00:50;13.03;;;7.73;;
84766;SDS011;74995;49.824;10.994;2024-03-06T05:03:16;12.23;;;7.47;;
84766;SDS011;74995;49.824;10.994;2024-03-06T05:05:41;12.82;;;7.25;;
84766;SDS011;74995;49.824;10.994;2024-03-06T05:08:06;17.10;;;9.18;;
84766;SDS011;74995;49.824;10.994;2024-03-06T05:10:32;12.27;;;7.80;;
84766;SDS011;74995;49.824;10.994;2024-03-06T05:12:57;12.48;;;7.13;;
84766;SDS011;74995;49.824;10.994;2024-03-06T05:15:23;13.25;;;7.70;;
84766;SDS011;74995;49.824;10.994;2024-03-06T05:17:48;16.02;;;9.02;;
84766;SDS011;74995;49.824;10.994;2024-03-06T05:22:39;17.27;;;7.38;;
84766;SDS011;74995;49.824;10.994;2024-03-06T05:27:30;11.25;;;7.20;;
84766;SDS011;74995;49.824;10.994;2024-03-06T05:29:56;14.98;;;8.13;;
84766;SDS011;74995;49.824;10.994;2024-03-06T05:32:21;12.38;;;7.10;;
84766;SDS011;74995;49.824;10.994;2024-03-06T05:37:12;12.90;;;7.57;;
84766;SDS011;74995;49.824;10.994;2024-03-06T05:39:37;13.57;;;7.55;;
84766;SDS011;74995;49.824;10.994;2024-03-06T05:42:03;16.45;;;8.85;;
84766;SDS011;74995;49.824;10.994;2024-03-06T05:44:32;15.98;;;8.20;;
84766;SDS011;74995;49.824;10.994;2024-03-06T05:47:01;16.67;;;8.75;;
84766;SDS011;74995;49.824;10.994;2024-03-06T05:49:27;13.55;;;7.13;;
84766;SDS011;74995;49.824;10.994;2024-03-06T05:51:53;13.43;;;7.53;;
84766;SDS011;74995;49.824;10.994;2024-03-06T05:54:22;15.52;;;7.28;;
84766;SDS011;74995;49.824;10.994;2024-03-06T05:56:48;16.05;;;8.27;;
84766;SDS011;74995;49.824;10.994;2024-03-06T05:59:14;14.13;;;8.07;;
84766;SDS011;74995;49.824;10.994;2024-03-06T06:01:40;15.90;;;8.50;;
84766;SDS011;74995;49.824;10.994;2024-03-06T06:04:07;13.90;;;8.07;;
84766;SDS011;74995;49.824;10.994;2024-03-06T06:06:34;14.60;;;9.13;;
84766;SDS011;74995;49.824;10.994;2024-03-06T06:08:59;17.20;;;9.50;;
84766;SDS011;74995;49.824;10.994;2024-03-06T06:11:25;13.30;;;8.60;;
84766;SDS011;74995;49.824;10.994;2024-03-06T06:16:16;10.60;;;6.80;;
84766;SDS011;74995;49.824;10.994;2024-03-06T06:18:42;12.95;;;7.07;;
84766;SDS011;74995;49.824;10.994;2024-03-06T06:23:33;12.13;;;8.30;;
84766;SDS011;74995;49.824;10.994;2024-03-06T06:28:24;10.50;;;6.53;;
84766;SDS011;74995;49.824;10.994;2024-03-06T06:30:49;14.02;;;7.93;;
84766;SDS011;74995;49.824;10.994;2024-03-06T06:33:17;12.35;;;7.70;;
84766;SDS011;74995;49.824;10.994;2024-03-06T06:35:43;14.85;;;7.70;;
84766;SDS011;74995;49.824;10.994;2024-03-06T06:38:09;14.90;;;7.55;;
84766;SDS011;74995;49.824;10.994;2024-03-06T06:43:00;17.80;;;9.15;;
84766;SDS011;74995;49.824;10.994;2024-03-06T06:45:26;15.75;;;9.18;;
84766;SDS011;74995;49.824;10.994;2024-03-06T06:47:51;16.02;;;8.50;;
84766;SDS011;74995;49.824;10.994;2024-03-06T06:50:17;12.75;;;7.30;;
84766;SDS011;74995;49.824;10.994;2024-03-06T06:55:07;13.02;;;6.57;;
84766;SDS011;74995;49.824;10.994;2024-03-06T06:57:36;14.05;;;7.85;;
84766;SDS011;74995;49.824;10.994;2024-03-06T07:00:03;14.30;;;6.93;;
84766;SDS011;74995;49.824;10.994;2024-03-06T07:02:36;10.68;;;6.25;;
84766;SDS011;74995;49.824;10.994;2024-03-06T07:05:01;10.13;;;5.80;;
84766;SDS011;74995;49.824;10.994;2024-03-06T07:07:28;10.88;;;6.55;;
84766;SDS011;74995;49.824;10.994;2024-03-06T07:09:53;11.68;;;7.07;;
84766;SDS011;74995;49.824;10.994;2024-03-06T07:12:18;9.32;;;4.85;;
84766;SDS011;74995;49.824;10.994;2024-03-06T07:14:43;6.70;;;4.07;;
84766;SDS011;74995;49.824;10.994;2024-03-06T07:19:34;6.77;;;4.37;;
84766;SDS011;74995;49.824;10.994;2024-03-06T07:21:59;7.60;;;4.55;;
84766;SDS011;74995;49.824;10.994;2024-03-06T07:24:25;9.55;;;5.43;;
84766;SDS011;74995;49.824;10.994;2024-03-06T07:29:15;11.57;;;5.90;;
84766;SDS011;74995;49.824;10.994;2024-03-06T07:31:41;11.65;;;6.72;;
84766;SDS011;74995;49.824;10.994;2024-03-06T07:34:07;8.50;;;4.22;;
84766;SDS011;74995;49.824;10.994;2024-03-06T07:36:33;8.80;;;4.80;;
84766;SDS011;74995;49.824;10.994;2024-03-06T07:39:00;17.27;;;8.82;;
84766;SDS011;74995;49.824;10.994;2024-03-06T07:41:25;44.53;;;20.40;;
84766;SDS011;74995;49.824;10.994;2024-03-06T07:43:51;20.58;;;10.70;;
84766;SDS011;74995;49.824;10.994;2024-03-06T07:46:16;14.07;;;7.38;;
84766;SDS011;74995;49.824;10.994;2024-03-06T07:48:42;11.15;;;6.07;;
84766;SDS011;74995;49.824;10.994;2024-03-06T07:51:09;13.00;;;6.40;;
84766;SDS011;74995;49.824;10.994;2024-03-06T07:53:34;11.40;;;5.90;;
84766;SDS011;74995;49.824;10.994;2024-03-06T07:56:00;10.27;;;5.57;;
84766;SDS011;74995;49.824;10.994;2024-03-06T07:58:25;11.93;;;6.03;;
84766;SDS011;74995;49.824;10.994;2024-03-06T08:00:51;10.93;;;5.78;;
84766;SDS011;74995;49.824;10.994;2024-03-06T08:03:20;12.75;;;5.85;;
84766;SDS011;74995;49.824;10.994;2024-03-06T08:05:45;11.80;;;6.10;;
84766;SDS011;74995;49.824;10.994;2024-03-06T08:08:11;13.27;;;6.90;;
84766;SDS011;74995;49.824;10.994;2024-03-06T08:10:36;10.48;;;6.07;;
84766;SDS011;74995;49.824;10.994;2024-03-06T08:13:01;8.15;;;4.85;;
84766;SDS011;74995;49.824;10.994;2024-03-06T08:15:28;12.32;;;5.93;;
84766;SDS011;74995;49.824;10.994;2024-03-06T08:17:53;10.57;;;6.63;;
84766;SDS011;74995;49.824;10.994;2024-03-06T08:20:19;12.65;;;5.88;;
84766;SDS011;74995;49.824;10.994;2024-03-06T08:22:44;10.30;;;4.90;;
84766;SDS011;74995;49.824;10.994;2024-03-06T08:25:10;12.95;;;6.53;;
84766;SDS011;74995;49.824;10.994;2024-03-06T08:27:38;10.07;;;5.63;;
84766;SDS011;74995;49.824;10.994;2024-03-06T08:30:05;8.90;;;5.07;;
84766;SDS011;74995;49.824;10.994;2024-03-06T08:32:32;12.55;;;6.53;;
84766;SDS011;74995;49.824;10.994;2024-03-06T08:35:02;7.25;;;4.53;;
84766;SDS011;74995;49.824;10.994;2024-03-06T08:37:30;7.97;;;4.18;;
84766;SDS011;74995;49.824;10.994;2024-03-06T08:39:56;12.32;;;6.28;;
84766;SDS011;74995;49.824;10.994;2024-03-06T08:42:21;10.25;;;5.10;;
84766;SDS011;74995;49.824;10.994;2024-03-06T08:44:47;9.85;;;5.20;;
84766;SDS011;74995;49.824;10.994;2024-03-06T08:47:12;8.60;;;5.13;;
84766;SDS011;74995;49.824;10.994;2024-03-06T08:49:38;11.52;;;5.45;;
84766;SDS011;74995;49.824;10.994;2024-03-06T08:52:03;8.40;;;4.38;;
84766;SDS011;74995;49.824;10.994;2024-03-06T08:54:29;9.63;;;5.30;;
84766;SDS011;74995;49.824;10.994;2024-03-06T08:56:56;9.02;;;5.20;;
84766;SDS011;74995;49.824;10.994;2024-03-06T08:59:23;7.97;;;5.03;;
84766;SDS011;74995;49.824;10.994;2024-03-06T09:01:51;10.25;;;5.18;;
84766;SDS011;74995;49.824;10.994;2024-03-06T09:04:17;7.10;;;4.13;;
84766;SDS011;74995;49.824;10.994;2024-03-06T09:06:42;9.95;;;5.50;;
84766;SDS011;74995;49.824;10.994;2024-03-06T09:09:08;8.55;;;4.53;;
84766;SDS011;74995;49.824;10.994;2024-03-06T09:11:34;7.63;;;4.28;;
84766;SDS011;74995;49.824;10.994;2024-03-06T09:14:00;7.45;;;4.30;;
84766;SDS011;74995;49.824;10.994;2024-03-06T09:16:25;9.05;;;5.00;;
84766;SDS011;74995;49.824;10.994;2024-03-06T09:18:50;12.35;;;6.32;;
84766;SDS011;74995;49.824;10.994;2024-03-06T09:21:16;10.90;;;5.63;;
84766;SDS011;74995;49.824;10.994;2024-03-06T09:23:41;8.05;;;4.47;;
84766;SDS011;74995;49.824;10.994;2024-03-06T09:26:07;8.57;;;4.45;;
84766;SDS011;74995;49.824;10.994;2024-03-06T09:28:32;9.55;;;4.90;;
84766;SDS011;74995;49.824;10.994;2024-03-06T09:30:58;9.98;;;4.93;;
84766;SDS011;74995;49.824;10.994;2024-03-06T09:33:23;10.20;;;4.95;;
84766;SDS011;74995;49.824;10.994;2024-03-06T09:35:48;7.82;;;4.93;;
84766;SDS011;74995;49.824;10.994;2024-03-06T09:38:14;11.95;;;5.53;;
84766;SDS011;74995;49.824;10.994;2024-03-06T09:40:39;8.25;;;4.70;;
84766;SDS011;74995;49.824;10.994;2024-03-06T09:43:07;8.27;;;4.75;;
84766;SDS011;74995;49.824;10.994;2024-03-06T09:45:34;7.72;;;4.70;;
84766;SDS011;74995;49.824;10.994;2024-03-06T09:48:00;7.78;;;3.97;;
84766;SDS011;74995;49.824;10.994;2024-03-06T09:50:26;8.27;;;4.57;;
84766;SDS011;74995;49.824;10.994;2024-03-06T09:52:55;6.88;;;4.47;;
84766;SDS011;74995;49.824;10.994;2024-03-06T09:55:20;8.05;;;4.60;;
84766;SDS011;74995;49.824;10.994;2024-03-06T09:57:46;11.88;;;7.25;;
84766;SDS011;74995;49.824;10.994;2024-03-06T10:00:12;14.82;;;7.25;;
84766;SDS011;74995;49.824;10.994;2024-03-06T10:02:38;13.07;;;6.32;;
84766;SDS011;74995;49.824;10.994;2024-03-06T10:05:20;12.75;;;7.32;;
84766;SDS011;74995;49.824;10.994;2024-03-06T10:07:47;13.30;;;7.10;;
84766;SDS011;74995;49.824;10.994;2024-03-06T10:10:12;17.02;;;7.38;;
84766;SDS011;74995;49.824;10.994;2024-03-06T10:12:38;12.43;;;6.47;;
84766;SDS011;74995;49.824;10.994;2024-03-06T10:15:04;14.70;;;8.32;;
84766;SDS011;74995;49.824;10.994;2024-03-06T10:17:29;12.68;;;7.22;;
84766;SDS011;74995;49.824;10.994;2024-03-06T10:19:55;11.68;;;6.05;;
84766;SDS011;74995;49.824;10.994;2024-03-06T10:22:23;13.95;;;6.65;;
84766;SDS011;74995;49.824;10.994;2024-03-06T10:24:49;14.32;;;7.18;;
84766;SDS011;74995;49.824;10.994;2024-03-06T10:27:15;13.93;;;7.28;;
84766;SDS011;74995;49.824;10.994;2024-03-06T10:29:44;14.85;;;7.57;;
84766;SDS011;74995;49.824;10.994;2024-03-06T10:32:09;16.08;;;7.47;;
84766;SDS011;74995;49.824;10.994;2024-03-06T10:34:36;19.70;;;9.90;;
84766;SDS011;74995;49.824;10.994;2024-03-06T10:37:02;30.25;;;14.55;;
84766;SDS011;74995;49.824;10.994;2024-03-06T10:39:32;34.75;;;16.27;;
84766;SDS011;74995;49.824;10.994;2024-03-06T10:42:03;24.02;;;10.60;;
84766;SDS011;74995;49.824;10.994;2024-03-06T10:44:32;36.08;;;16.15;;
84766;SDS011;74995;49.824;10.994;2024-03-06T10:47:03;31.05;;;15.43;;
84766;SDS011;74995;49.824;10.994;2024-03-06T10:49:31;17.35;;;8.27;;
84766;SDS011;74995;49.824;10.994;2024-03-06T10:52:01;12.27;;;6.20;;
84766;SDS011;74995;49.824;10.994;2024-03-06T10:54:31;15.13;;;7.75;;
84766;SDS011;74995;49.824;10.994;2024-03-06T10:56:57;11.52;;;6.03;;
84766;SDS011;74995;49.824;10.994;2024-03-06T10:59:27;12.38;;;6.65;;
84766;SDS011;74995;49.824;10.994;2024-03-06T11:01:54;13.43;;;6.40;;
84766;SDS011;74995;49.824;10.994;2024-03-06T11:04:25;10.48;;;5.80;;
84766;SDS011;74995;49.824;10.994;2024-03-06T11:06:56;19.27;;;9.32;;
84766;SDS011;74995;49.824;10.994;2024-03-06T11:09:22;18.67;;;9.55;;
84766;SDS011;74995;49.824;10.994;2024-03-06T11:11:51;19.73;;;9.55;;
84766;SDS011;74995;49.824;10.994;2024-03-06T11:14:18;14.52;;;8.13;;
84766;SDS011;74995;49.824;10.994;2024-03-06T11:17:21;19.80;;;10.27;;
84766;SDS011;74995;49.824;10.994;2024-03-06T11:30:56;15.65;;;6.18;;
84766;SDS011;74995;49.824;10.994;2024-03-06T11:33:39;10.73;;;5.50;;
84766;SDS011;74995;49.824;10.994;2024-03-06T11:36:18;8.90;;;5.28;;
84766;SDS011;74995;49.824;10.994;2024-03-06T11:41:24;10.05;;;5.68;;
84766;SDS011;74995;49.824;10.994;2024-03-06T11:43:53;11.77;;;6.07;;
84766;SDS011;74995;49.824;10.994;2024-03-06T11:46:20;10.63;;;5.63;;
84766;SDS011;74995;49.824;10.994;2024-03-06T11:48:53;10.65;;;6.00;;
84766;SDS011;74995;49.824;10.994;2024-03-06T11:51:20;12.07;;;5.93;;
84766;SDS011;74995;49.824;10.994;2024-03-06T11:53:48;11.02;;;5.47;;
84766;SDS011;74995;49.824;10.994;2024-03-06T11:56:14;10.32;;;5.45;;
84766;SDS011;74995;49.824;10.994;2024-03-06T11:58:40;11.60;;;5.60;;
84766;SDS011;74995;49.824;10.994;2024-03-06T12:01:05;8.95;;;4.70;;
84766;SDS011;74995;49.824;10.994;2024-03-06T12:03:31;11.55;;;5.80;;
84766;SDS011;74995;49.824;10.994;2024-03-06T12:05:56;21.35;;;9.27;;
84766;SDS011;74995;49.824;10.994;2024-03-06T12:08:22;22.00;;;10.15;;
84766;SDS011;74995;49.824;10.994;2024-03-06T12:10:48;16.60;;;7.05;;
84766;SDS011;74995;49.824;10.994;2024-03-06T12:13:14;12.10;;;5.78;;
84766;SDS011;74995;49.824;10.994;2024-03-06T12:15:42;11.38;;;5.60;;
84766;SDS011;74995;49.824;10.994;2024-03-06T12:18:08;14.00;;;6.55;;
84766;SDS011;74995;49.824;10.994;2024-03-06T12:20:33;17.08;;;9.15;;
84766;SDS011;74995;49.824;10.994;2024-03-06T12:22:58;21.58;;;10.77;;
84766;SDS011;74995;49.824;10.994;2024-03-06T12:25:24;24.50;;;13.35;;
84766;SDS011;74995;49.824;10.994;2024-03-06T12:27:52;21.48;;;11.88;;
84766;SDS011;74995;49.824;10.994;2024-03-06T12:30:22;23.30;;;13.13;;
84766;SDS011;74995;49.824;10.994;2024-03-06T12:35:26;17.42;;;9.25;;
84766;SDS011;74995;49.824;10.994;2024-03-06T12:37:52;15.38;;;8.00;;
84766;SDS011;74995;49.824;10.994;2024-03-06T12:40:18;13.85;;;8.23;;
84766;SDS011;74995;49.824;10.994;2024-03-06T12:42:44;11.00;;;6.15;;
84766;SDS011;74995;49.824;10.994;2024-03-06T12:45:11;10.77;;;5.80;;
84766;SDS011;74995;49.824;10.994;2024-03-06T12:47:36;7.65;;;5.05;;
84766;SDS011;74995;49.824;10.994;2024-03-06T12:50:02;10.55;;;5.82;;
84766;SDS011;74995;49.824;10.994;2024-03-06T12:52:29;9.48;;;5.18;;
84766;SDS011;74995;49.824;10.994;2024-03-06T12:54:54;10.63;;;5.55;;
84766;SDS011;74995;49.824;10.994;2024-03-06T12:57:20;9.25;;;6.22;;
84766;SDS011;74995;49.824;10.994;2024-03-06T12:59:45;9.23;;;4.93;;
84766;SDS011;74995;49.824;10.994;2024-03-06T13:02:10;10.05;;;6.00;;
84766;SDS011;74995;49.824;10.994;2024-03-06T13:04:35;12.48;;;8.18;;
84766;SDS011;74995;49.824;10.994;2024-03-06T13:07:01;14.02;;;7.28;;
84766;SDS011;74995;49.824;10.994;2024-03-06T13:09:27;11.45;;;6.65;;
84766;SDS011;74995;49.824;10.994;2024-03-06T13:11:53;9.45;;;6.30;;
84766;SDS011;74995;49.824;10.994;2024-03-06T13:14:19;9.55;;;5.50;;
84766;SDS011;74995;49.824;10.994;2024-03-06T13:16:44;9.52;;;5.25;;
84766;SDS011;74995;49.824;10.994;2024-03-06T13:19:10;11.13;;;5.10;;
84766;SDS011;74995;49.824;10.994;2024-03-06T13:21:36;11.05;;;5.88;;
84766;SDS011;74995;49.824;10.994;2024-03-06T13:24:01;10.82;;;5.55;;
84766;SDS011;74995;49.824;10.994;2024-03-06T13:26:28;10.15;;;6.13;;
84766;SDS011;74995;49.824;10.994;2024-03-06T13:28:53;10.32;;;5.57;;
84766;SDS011;74995;49.824;10.994;2024-03-06T13:31:18;10.57;;;5.68;;
84766;SDS011;74995;49.824;10.994;2024-03-06T13:33:43;9.43;;;4.68;;
84766;SDS011;74995;49.824;10.994;2024-03-06T13:36:09;10.07;;;5.82;;
84766;SDS011;74995;49.824;10.994;2024-03-06T13:38:34;9.90;;;5.35;;
84766;SDS011;74995;49.824;10.994;2024-03-06T13:41:00;14.05;;;6.18;;
84766;SDS011;74995;49.824;10.994;2024-03-06T13:43:27;12.65;;;6.72;;
84766;SDS011;74995;49.824;10.994;2024-03-06T13:45:53;12.65;;;6.75;;
84766;SDS011;74995;49.824;10.994;2024-03-06T13:48:19;13.95;;;7.47;;
84766;SDS011;74995;49.824;10.994;2024-03-06T13:50:44;14.15;;;8.30;;
84766;SDS011;74995;49.824;10.994;2024-03-06T13:53:11;12.23;;;5.93;;
84766;SDS011;74995;49.824;10.994;2024-03-06T13:55:37;10.43;;;5.88;;
84766;SDS011;74995;49.824;10.994;2024-03-06T13:58:02;10.85;;;5.80;;
84766;SDS011;74995;49.824;10.994;2024-03-06T14:00:28;11.38;;;6.78;;
84766;SDS011;74995;49.824;10.994;2024-03-06T14:02:53;13.48;;;7.13;;
84766;SDS011;74995;49.824;10.994;2024-03-06T14:05:19;14.52;;;6.53;;
84766;SDS011;74995;49.824;10.994;2024-03-06T14:07:49;11.43;;;6.47;;
84766;SDS011;74995;49.824;10.994;2024-03-06T14:10:18;13.77;;;7.10;;
84766;SDS011;74995;49.824;10.994;2024-03-06T14:12:46;14.55;;;7.13;;
84766;SDS011;74995;49.824;10.994;2024-03-06T14:15:12;12.77;;;7.60;;
84766;SDS011;74995;49.824;10.994;2024-03-06T14:17:38;99.65;;;15.57;;
84766;SDS011;74995;49.824;10.994;2024-03-06T14:20:04;44.17;;;9.30;;
84766;SDS011;74995;49.824;10.994;2024-03-06T14:22:30;14.13;;;6.97;;
84766;SDS011;74995;49.824;10.994;2024-03-06T14:24:55;15.25;;;7.88;;
84766;SDS011;74995;49.824;10.994;2024-03-06T14:27:21;15.25;;;7.03;;
84766;SDS011;74995;49.824;10.994;2024-03-06T14:29:46;13.80;;;7.30;;
84766;SDS011;74995;49.824;10.994;2024-03-06T14:32:12;15.90;;;8.20;;
84766;SDS011;74995;49.824;10.994;2024-03-06T14:34:37;14.05;;;7.30;;
84766;SDS011;74995;49.824;10.994;2024-03-06T14:37:03;15.93;;;7.13;;
84766;SDS011;74995;49.824;10.994;2024-03-06T14:39:28;17.77;;;7.95;;
84766;SDS011;74995;49.824;10.994;2024-03-06T14:41:53;17.00;;;8.30;;
84766;SDS011;74995;49.824;10.994;2024-03-06T14:44:19;15.45;;;8.75;;
84766;SDS011;74995;49.824;10.994;2024-03-06T14:46:44;17.48;;;8.07;;
84766;SDS011;74995;49.824;10.994;2024-03-06T14:49:10;15.13;;;8.13;;
84766;SDS011;74995;49.824;10.994;2024-03-06T14:51:35;15.65;;;7.75;;
84766;SDS011;74995;49.824;10.994;2024-03-06T14:54:01;17.60;;;9.57;;
84766;SDS011;74995;49.824;10.994;2024-03-06T14:56:26;18.75;;;9.48;;
84766;SDS011;74995;49.824;10.994;2024-03-06T14:58:52;14.57;;;7.85;;
84766;SDS011;74995;49.824;10.994;2024-03-06T15:01:17;15.75;;;8.68;;
84766;SDS011;74995;49.824;10.994;2024-03-06T15:03:43;18.17;;;8.90;;
84766;SDS011;74995;49.824;10.994;2024-03-06T15:06:10;14.38;;;7.53;;
84766;SDS011;74995;49.824;10.994;2024-03-06T15:08:36;16.20;;;9.15;;
84766;SDS011;74995;49.824;10.994;2024-03-06T15:11:01;12.90;;;7.68;;
84766;SDS011;74995;49.824;10.994;2024-03-06T15:13:27;16.08;;;7.85;;
84766;SDS011;74995;49.824;10.994;2024-03-06T15:15:53;16.70;;;9.55;;
84766;SDS011;74995;49.824;10.994;2024-03-06T15:18:18;14.85;;;7.50;;
84766;SDS011;74995;49.824;10.994;2024-03-06T15:20:44;13.93;;;7.70;;
84766;SDS011;74995;49.824;10.994;2024-03-06T15:23:09;16.83;;;8.10;;
84766;SDS011;74995;49.824;10.994;2024-03-06T15:25:35;14.18;;;7.50;;
84766;SDS011;74995;49.824;10.994;2024-03-06T15:28:00;13.55;;;6.82;;
84766;SDS011;74995;49.824;10.994;2024-03-06T15:30:25;15.20;;;8.05;;
84766;SDS011;74995;49.824;10.994;2024-03-06T15:32:52;14.10;;;6.78;;
84766;SDS011;74995;49.824;10.994;2024-03-06T15:35:17;11.15;;;7.15;;
84766;SDS011;74995;49.824;10.994;2024-03-06T15:37:42;13.80;;;7.95;;
84766;SDS011;74995;49.824;10.994;2024-03-06T15:40:08;13.57;;;7.32;;
84766;SDS011;74995;49.824;10.994;2024-03-06T15:42:34;13.05;;;6.70;;